MMTG/TGZ METAR and TAF weather

Enter ICAO airport designator
Station Type Date Time Source
MMTG METAR 2022/05/23 14:41 UTC NOAA

MMTG 231441Z 33004KT 7SM SCT300 26/18 A2998 RMK SLP119 52003 967 8/002


Station Type Date Time Source
MMTG Decoded METAR 2022/05/23 14:41 UTC NOAA

Tuxtla Gutierrez, Chis., Mexico (MMTG) 16-45N 093-07W
May 23, 2022 - 10:41 AM EDT / 2022.05.23 1441 UTC
Wind: from the NNW (330 degrees) at 5 MPH (4 KT):0
Visibility: 7 mile(s):0
Sky conditions: partly cloudy
Temperature: 78 F (26 C)
Dew Point: 64 F (18 C)
Relative Humidity: 61%
Pressure (altimeter): 29.98 in. Hg (1015 hPa)
Pressure tendency: 0.01 inches (0.3 hPa) higher than three hours ago
ob: MMTG 231441Z 33004KT 7SM SCT300 26/18 A2998 RMK SLP119 52003 967 8/002
cycle: 14

Station Type Date Time Source
MMTG TAF 2022/05/23 06:18 UTC NOAA

TAF MMTG 230408Z 2306/2406 00000KT 6SM HZ SCT030 SCT090 BKN300
TEMPO 2306/2310 6SM TSRA BKN030CB
FM231000 00000KT 5SM HZ SCT015 BKN080
TEMPO 2312/2315 3SM HZ BKN010
FM231800 30010KT P6SM SCT030 BKN300
TEMPO 2323/2403 5SM TSRA BKN030CB

Example: see airport list